createdAt,value
2019-05-25T00:00:06.531Z,5.77
2019-05-25T00:02:13.193Z,5.77
2019-05-25T00:04:19.677Z,6.17
2019-05-25T00:06:26.054Z,6.07
2019-05-25T00:08:32.922Z,6.37
2019-05-25T00:10:39.528Z,6.17
2019-05-25T00:12:45.943Z,6.47
2019-05-25T00:14:52.310Z,6.43
2019-05-25T00:16:58.672Z,5.80
2019-05-25T00:19:06.589Z,6.60
2019-05-25T00:21:14.352Z,6.60
2019-05-25T00:23:20.834Z,6.50
2019-05-25T00:25:28.934Z,7.30
2019-05-25T00:27:35.193Z,6.97
2019-05-25T00:29:45.556Z,7.53
2019-05-25T00:31:52.122Z,7.57
2019-05-25T00:33:58.879Z,6.77
2019-05-25T00:36:05.557Z,7.33
2019-05-25T00:38:11.926Z,7.37
2019-05-25T00:40:20.647Z,8.43
2019-05-25T00:42:27.942Z,8.87
2019-05-25T00:44:34.195Z,7.90
2019-05-25T00:46:40.552Z,7.07
2019-05-25T00:48:47.039Z,7.87
2019-05-25T00:50:53.389Z,8.53
2019-05-25T00:52:59.845Z,7.57
2019-05-25T00:55:08.970Z,7.60
2019-05-25T00:57:15.423Z,8.47
2019-05-25T00:59:22.011Z,8.43
2019-05-25T01:01:28.391Z,7.50
2019-05-25T01:03:34.725Z,8.10
2019-05-25T01:05:41.095Z,8.03
2019-05-25T01:07:47.458Z,8.33
2019-05-25T01:09:53.712Z,7.90
2019-05-25T01:12:00.215Z,7.43
2019-05-25T01:14:07.177Z,8.40
2019-05-25T01:16:13.526Z,8.07
2019-05-25T01:18:23.079Z,7.93
2019-05-25T01:20:29.980Z,7.97
2019-05-25T01:22:36.503Z,8.90
2019-05-25T01:24:44.716Z,8.30
2019-05-25T01:26:50.752Z,8.50
2019-05-25T01:28:57.758Z,8.73
2019-05-25T01:31:04.731Z,8.53
2019-05-25T01:33:10.964Z,8.80
2019-05-25T01:35:18.784Z,8.40
2019-05-25T01:37:25.018Z,8.27
2019-05-25T01:39:31.609Z,7.57
2019-05-25T01:41:37.843Z,9.03
2019-05-25T01:43:44.146Z,8.90
2019-05-25T01:45:52.109Z,8.93
2019-05-25T01:47:58.392Z,8.50
2019-05-25T01:50:06.379Z,8.33
2019-05-25T01:52:12.853Z,8.80
2019-05-25T01:54:19.102Z,8.73
2019-05-25T01:56:25.371Z,8.40
2019-05-25T01:58:31.635Z,8.80
2019-05-25T02:00:38.591Z,8.83
2019-05-25T02:02:44.965Z,8.77
2019-05-25T02:04:51.238Z,9.47
2019-05-25T02:06:57.695Z,8.17
2019-05-25T02:09:04.664Z,9.10
2019-05-25T02:11:11.341Z,8.23
2019-05-25T02:13:17.595Z,8.80
2019-05-25T02:15:24.080Z,9.13
2019-05-25T02:17:30.520Z,8.93
2019-05-25T02:19:37.103Z,9.03
2019-05-25T02:21:43.966Z,9.20
2019-05-25T02:23:50.428Z,8.77
2019-05-25T02:25:56.799Z,9.70
2019-05-25T02:28:03.057Z,7.97
2019-05-25T02:30:11.776Z,8.83
2019-05-25T02:32:19.775Z,8.53
2019-05-25T02:34:26.239Z,7.87
2019-05-25T02:36:32.928Z,9.27
2019-05-25T02:38:40.200Z,8.63
2019-05-25T02:40:46.570Z,8.80
2019-05-25T02:42:54.463Z,8.97
2019-05-25T02:45:00.839Z,8.50
2019-05-25T02:47:08.711Z,8.50
2019-05-25T02:49:17.505Z,9.03
2019-05-25T02:51:23.789Z,8.80
2019-05-25T02:53:30.773Z,9.27
2019-05-25T02:55:37.249Z,9.17
2019-05-25T02:57:43.604Z,8.70
2019-05-25T02:59:49.887Z,8.40
2019-05-25T03:01:56.333Z,8.60
2019-05-25T03:04:03.729Z,8.70
2019-05-25T03:06:11.946Z,8.53
2019-05-25T03:08:18.601Z,8.73
2019-05-25T03:10:24.948Z,8.70
2019-05-25T03:12:32.885Z,8.53
2019-05-25T03:14:39.613Z,8.47
2019-05-25T03:16:45.908Z,9.10
2019-05-25T03:18:52.265Z,8.40
2019-05-25T03:20:58.619Z,8.70
2019-05-25T03:23:04.879Z,8.83
2019-05-25T03:25:11.725Z,7.87
2019-05-25T03:27:18.118Z,8.83
2019-05-25T03:29:26.087Z,8.57
2019-05-25T03:31:32.387Z,9.30
2019-05-25T03:33:39.836Z,9.10
2019-05-25T03:35:48.105Z,10.30
2019-05-25T03:37:54.529Z,9.20
2019-05-25T03:40:00.793Z,8.70
2019-05-25T03:42:07.037Z,9.00
2019-05-25T03:44:13.426Z,9.23
2019-05-25T03:46:20.507Z,8.90
2019-05-25T03:48:26.735Z,8.93
2019-05-25T03:50:33.029Z,8.37
2019-05-25T03:52:39.559Z,8.37
2019-05-25T03:54:45.940Z,8.13
2019-05-25T03:56:52.403Z,8.23
2019-05-25T03:58:58.782Z,7.67
2019-05-25T04:01:05.249Z,7.70
2019-05-25T04:03:11.492Z,7.73
2019-05-25T04:05:17.765Z,8.30
2019-05-25T04:07:24.746Z,8.57
2019-05-25T04:09:31.084Z,7.87
2019-05-25T04:11:37.383Z,7.40
2019-05-25T04:13:43.821Z,7.30
2019-05-25T04:15:50.179Z,7.30
2019-05-25T04:17:56.635Z,7.83
2019-05-25T04:20:02.908Z,7.27
2019-05-25T04:22:09.274Z,7.27
2019-05-25T04:24:18.315Z,7.77
2019-05-25T04:26:27.447Z,7.80
2019-05-25T04:28:32.476Z,8.30
2019-05-25T04:30:38.822Z,8.07
2019-05-25T04:32:45.060Z,7.33
2019-05-25T04:34:55.557Z,8.30
2019-05-25T04:37:02.018Z,7.67
2019-05-25T04:39:09.421Z,7.60
2019-05-25T04:41:15.745Z,7.47
2019-05-25T04:43:22.128Z,7.73
2019-05-25T04:45:28.891Z,7.73
2019-05-25T04:47:35.296Z,7.73
2019-05-25T04:49:43.046Z,7.77
2019-05-25T04:51:49.314Z,7.97
2019-05-25T04:53:55.938Z,7.53
2019-05-25T04:56:03.147Z,7.03
2019-05-25T04:58:09.527Z,7.67
2019-05-25T05:00:16.509Z,7.57
2019-05-25T05:02:23.074Z,7.97
2019-05-25T05:04:29.433Z,7.57
2019-05-25T05:06:35.806Z,7.57
2019-05-25T05:08:42.178Z,7.93
2019-05-25T05:10:48.529Z,7.77
2019-05-25T05:12:56.164Z,7.60
2019-05-25T05:15:02.495Z,8.23
2019-05-25T05:17:08.859Z,7.67
2019-05-25T05:19:15.210Z,8.17
2019-05-25T05:21:21.659Z,6.90
2019-05-25T05:23:28.219Z,7.53
2019-05-25T05:25:34.596Z,6.07
2019-05-25T05:27:40.964Z,6.53
2019-05-25T05:29:47.322Z,7.47
2019-05-25T05:31:53.687Z,5.67
2019-05-25T05:34:00.760Z,4.70
2019-05-25T05:36:08.707Z,5.57
2019-05-25T05:38:16.357Z,4.70
2019-05-25T05:40:22.609Z,6.50
2019-05-25T05:42:31.446Z,5.97
2019-05-25T05:44:42.829Z,5.10
2019-05-25T05:46:50.387Z,5.10
2019-05-25T05:48:58.169Z,5.30
2019-05-25T05:51:06.117Z,4.70
2019-05-25T05:53:12.794Z,4.40
2019-05-25T05:55:23.536Z,4.90
2019-05-25T05:57:29.900Z,4.80
2019-05-25T05:59:36.256Z,4.20
2019-05-25T06:01:42.635Z,4.70
2019-05-25T06:03:48.981Z,4.33
2019-05-25T06:05:55.363Z,3.90
2019-05-25T06:08:01.708Z,4.80
2019-05-25T06:10:10.060Z,4.87
2019-05-25T06:12:16.381Z,4.23
2019-05-25T06:14:22.759Z,4.67
2019-05-25T06:16:29.170Z,4.87
2019-05-25T06:18:35.480Z,4.83
2019-05-25T06:20:41.736Z,4.93
2019-05-25T06:22:48.103Z,5.60
2019-05-25T06:24:54.562Z,4.67
2019-05-25T06:27:00.924Z,5.70
2019-05-25T06:29:07.284Z,4.53
2019-05-25T06:31:13.746Z,7.07
2019-05-25T06:33:19.994Z,6.00
2019-05-25T06:35:26.282Z,7.50
2019-05-25T06:37:32.833Z,5.80
2019-05-25T06:39:39.194Z,6.50
2019-05-25T06:41:47.013Z,5.60
2019-05-25T06:43:53.345Z,5.60
2019-05-25T06:45:59.739Z,5.20
2019-05-25T06:48:06.608Z,5.73
2019-05-25T06:50:14.906Z,5.93
2019-05-25T06:52:22.186Z,4.83
2019-05-25T06:54:28.655Z,4.90
2019-05-25T06:56:35.325Z,4.20
2019-05-25T06:58:42.192Z,4.27
2019-05-25T07:00:55.801Z,3.73
2019-05-25T07:03:02.085Z,4.80
2019-05-25T07:05:10.373Z,3.90
2019-05-25T07:07:16.653Z,3.50
2019-05-25T07:09:23.027Z,3.47
2019-05-25T07:11:29.591Z,3.70
2019-05-25T07:13:35.842Z,4.03
2019-05-25T07:15:42.208Z,3.33
2019-05-25T07:17:49.233Z,3.83
2019-05-25T07:19:55.676Z,4.00
2019-05-25T07:22:02.106Z,3.60
2019-05-25T07:24:08.479Z,4.23
2019-05-25T07:26:15.042Z,3.70
2019-05-25T07:28:21.522Z,3.90
2019-05-25T07:30:27.882Z,3.93
2019-05-25T07:32:34.259Z,3.63
2019-05-25T07:34:40.647Z,3.57
2019-05-25T07:36:48.083Z,4.03
2019-05-25T07:38:54.451Z,3.87
2019-05-25T07:41:00.713Z,2.80
2019-05-25T07:43:07.101Z,3.80
2019-05-25T07:45:15.189Z,2.20
2019-05-25T07:47:22.154Z,2.57
2019-05-25T07:49:28.418Z,3.17
2019-05-25T07:51:34.773Z,2.50
2019-05-25T07:53:41.042Z,2.40
2019-05-25T07:55:47.297Z,2.90
2019-05-25T07:57:53.790Z,2.23
2019-05-25T08:00:00.027Z,2.57
2019-05-25T08:02:06.394Z,2.00
2019-05-25T08:04:13.975Z,2.57
2019-05-25T08:06:20.359Z,2.83
2019-05-25T08:08:26.601Z,2.60
2019-05-25T08:10:32.878Z,2.67
2019-05-25T08:12:40.154Z,2.40
2019-05-25T08:14:47.115Z,4.07
2019-05-25T08:16:53.392Z,2.47
2019-05-25T08:18:59.643Z,2.30
2019-05-25T08:21:06.320Z,2.43
2019-05-25T08:23:12.689Z,2.07
2019-05-25T08:25:19.555Z,2.30
2019-05-25T08:27:25.812Z,19.30
2019-05-25T08:29:32.062Z,2.70
2019-05-25T08:31:38.441Z,2.90
2019-05-25T08:33:44.807Z,2.67
2019-05-25T08:38:03.074Z,2.83
2019-05-25T08:40:10.020Z,2.50
2019-05-25T08:42:18.242Z,1.77
2019-05-25T08:44:24.593Z,2.63
2019-05-25T08:46:31.368Z,2.40
2019-05-25T08:48:38.138Z,2.40
2019-05-25T08:50:44.417Z,2.73
2019-05-25T08:52:50.868Z,2.97
2019-05-25T08:54:58.261Z,2.40
2019-05-25T08:57:04.622Z,3.20
2019-05-25T08:59:10.993Z,3.03
2019-05-25T09:01:17.230Z,2.83
2019-05-25T09:03:23.596Z,2.23
2019-05-25T09:05:30.263Z,2.33
2019-05-25T09:07:36.532Z,2.00
2019-05-25T09:09:42.898Z,1.93
2019-05-25T09:11:49.275Z,1.97
2019-05-25T09:13:56.133Z,2.87
2019-05-25T09:16:03.000Z,2.63
2019-05-25T09:18:11.020Z,3.77
2019-05-25T09:20:38.168Z,2.20
2019-05-25T09:22:46.261Z,1.90
2019-05-25T09:24:52.539Z,1.60
2019-05-25T09:26:59.099Z,2.13
2019-05-25T09:29:05.574Z,1.90
2019-05-25T09:31:11.915Z,1.80
2019-05-25T09:33:19.421Z,1.80
2019-05-25T09:35:25.677Z,1.40
2019-05-25T09:37:32.548Z,1.77
2019-05-25T09:39:39.520Z,1.37
2019-05-25T09:41:45.777Z,1.60
2019-05-25T09:43:52.452Z,1.40
2019-05-25T09:45:58.802Z,1.60
2019-05-25T09:48:05.253Z,1.83
2019-05-25T09:50:13.718Z,2.13
2019-05-25T09:52:20.269Z,1.20
2019-05-25T09:54:26.648Z,1.40
2019-05-25T09:56:32.996Z,1.47
2019-05-25T09:58:39.572Z,1.03
2019-05-25T10:00:46.022Z,1.50
2019-05-25T10:02:52.448Z,1.37
2019-05-25T10:04:58.763Z,1.60
2019-05-25T10:07:05.218Z,1.60
2019-05-25T10:09:13.110Z,1.20
2019-05-25T10:11:19.351Z,1.43
2019-05-25T10:13:25.659Z,1.70
2019-05-25T10:15:31.997Z,1.80
2019-05-25T10:17:53.550Z,1.10
2019-05-25T10:20:00.293Z,1.60
2019-05-25T10:22:07.585Z,1.30
2019-05-25T10:24:13.937Z,1.33
2019-05-25T10:26:23.020Z,1.03
2019-05-25T10:28:28.194Z,1.37
2019-05-25T10:30:34.646Z,1.70
2019-05-25T10:32:42.550Z,1.40
2019-05-25T10:34:49.329Z,1.00
2019-05-25T10:36:57.139Z,1.50
2019-05-25T10:39:03.703Z,1.00
2019-05-25T10:41:10.246Z,1.50
2019-05-25T10:43:16.609Z,1.30
2019-05-25T10:45:23.271Z,1.80
2019-05-25T10:47:29.638Z,2.03
2019-05-25T10:49:36.243Z,1.30
2019-05-25T10:51:43.389Z,1.10
2019-05-25T10:53:49.769Z,1.47
2019-05-25T10:55:56.031Z,1.23
2019-05-25T10:58:02.296Z,1.37
2019-05-25T11:00:13.765Z,1.17
2019-05-25T11:02:20.061Z,1.20
2019-05-25T11:04:26.706Z,1.13
2019-05-25T11:06:34.950Z,1.17
2019-05-25T11:08:41.165Z,1.20
2019-05-25T11:10:47.414Z,0.93
2019-05-25T11:12:56.251Z,1.33
2019-05-25T11:15:02.746Z,1.00
2019-05-25T11:17:09.182Z,1.70
2019-05-25T11:19:15.575Z,1.10
2019-05-25T11:21:21.895Z,1.27
2019-05-25T11:23:28.176Z,0.87
2019-05-25T11:25:34.513Z,1.53
2019-05-25T11:27:41.086Z,1.10
2019-05-25T11:29:47.458Z,1.70
2019-05-25T11:32:00.752Z,1.40
2019-05-25T11:34:03.665Z,1.50
2019-05-25T11:36:10.140Z,1.10
2019-05-25T11:38:16.599Z,2.20
2019-05-25T11:40:26.625Z,1.43
2019-05-25T11:42:34.165Z,1.57
2019-05-25T11:44:40.462Z,1.20
2019-05-25T11:46:46.752Z,4.97
2019-05-25T11:48:53.010Z,1.20
2019-05-25T11:50:59.574Z,1.23
2019-05-25T11:53:06.279Z,1.67
2019-05-25T11:55:13.325Z,1.30
2019-05-25T11:57:23.393Z,1.17
2019-05-25T11:59:29.731Z,1.40
2019-05-25T12:01:36.090Z,1.73
2019-05-25T12:03:42.363Z,1.43
2019-05-25T12:05:48.615Z,0.90
2019-05-25T12:07:54.890Z,1.40
2019-05-25T12:10:01.336Z,1.13
2019-05-25T12:12:08.110Z,1.17
2019-05-25T12:14:14.487Z,1.20
2019-05-25T12:16:20.747Z,1.00
2019-05-25T12:18:27.309Z,1.00
2019-05-25T12:20:33.773Z,1.47
2019-05-25T12:22:40.541Z,0.80
2019-05-25T12:24:47.107Z,1.30
2019-05-25T12:26:53.488Z,0.83
2019-05-25T12:28:59.833Z,0.90
2019-05-25T12:31:06.406Z,1.03
2019-05-25T12:33:12.774Z,1.00
2019-05-25T12:35:20.818Z,1.10
2019-05-25T12:37:27.136Z,1.00
2019-05-25T12:39:33.993Z,1.10
2019-05-25T12:41:40.472Z,0.87
2019-05-25T12:43:46.935Z,1.67
2019-05-25T12:45:56.374Z,0.97
2019-05-25T12:48:03.036Z,2.07
2019-05-25T12:50:11.209Z,1.10
2019-05-25T12:52:17.515Z,1.20
2019-05-25T12:54:23.768Z,0.93
2019-05-25T12:56:30.243Z,1.10
2019-05-25T12:58:38.653Z,1.13
2019-05-25T13:00:55.666Z,1.90
2019-05-25T13:02:54.551Z,1.60
2019-05-25T13:05:00.831Z,1.53
2019-05-25T13:07:07.284Z,1.23
2019-05-25T13:09:15.264Z,0.93
2019-05-25T13:11:21.741Z,0.90
2019-05-25T13:13:27.987Z,0.87
2019-05-25T13:15:35.806Z,0.90
2019-05-25T13:17:42.156Z,1.00
2019-05-25T13:19:49.978Z,1.10
2019-05-25T13:21:56.423Z,0.80
2019-05-25T13:24:02.780Z,0.70
2019-05-25T13:26:10.896Z,1.17
2019-05-25T13:28:17.382Z,1.00
2019-05-25T13:30:24.142Z,0.93
2019-05-25T13:32:30.902Z,0.90
2019-05-25T13:34:37.410Z,1.00
2019-05-25T13:36:46.903Z,0.63
2019-05-25T13:38:53.181Z,0.80
2019-05-25T13:40:59.533Z,1.23
2019-05-25T13:43:07.005Z,1.10
2019-05-25T13:45:13.589Z,0.90
2019-05-25T13:47:19.961Z,1.00
2019-05-25T13:49:26.324Z,1.50
2019-05-25T13:51:32.657Z,1.80
2019-05-25T13:53:40.879Z,3.23
2019-05-25T13:55:47.113Z,1.20
2019-05-25T13:57:54.426Z,1.17
2019-05-25T14:00:01.005Z,2.70
2019-05-25T14:02:09.816Z,1.17
2019-05-25T14:04:16.264Z,1.33
2019-05-25T14:06:22.525Z,1.43
2019-05-25T14:08:29.913Z,0.97
2019-05-25T14:10:36.171Z,1.37
2019-05-25T14:12:42.422Z,1.13
2019-05-25T14:14:49.001Z,0.80
2019-05-25T14:16:55.673Z,1.27
2019-05-25T14:19:01.923Z,1.03
2019-05-25T14:21:08.184Z,1.17
2019-05-25T14:23:14.441Z,1.33
2019-05-25T14:25:21.232Z,1.00
2019-05-25T14:27:27.600Z,1.50
2019-05-25T14:29:33.848Z,1.17
2019-05-25T14:31:45.479Z,1.03
2019-05-25T14:33:48.028Z,0.87
2019-05-25T14:35:54.594Z,1.30
2019-05-25T14:38:01.442Z,1.33
2019-05-25T14:40:11.512Z,1.23
2019-05-25T14:42:18.065Z,1.40
2019-05-25T14:44:26.783Z,3.33
2019-05-25T14:46:33.036Z,1.60
2019-05-25T14:48:39.515Z,14.20
2019-05-25T14:50:45.865Z,4.23
2019-05-25T14:52:52.551Z,4.40
2019-05-25T14:54:58.895Z,7.10
2019-05-25T14:57:05.277Z,1.80
2019-05-25T14:59:11.539Z,5.17
2019-05-25T15:01:18.034Z,6.13
2019-05-25T15:03:24.460Z,1.70
2019-05-25T15:05:30.927Z,8.87
2019-05-25T15:07:37.286Z,6.80
2019-05-25T15:09:43.651Z,1.70
2019-05-25T15:11:53.540Z,3.97
2019-05-25T15:13:58.005Z,1.57
2019-05-25T15:16:06.137Z,1.00
2019-05-25T15:18:13.121Z,1.90
2019-05-25T15:20:20.281Z,3.30
2019-05-25T15:22:26.535Z,3.20
2019-05-25T15:24:33.102Z,1.20
2019-05-25T15:26:39.368Z,1.87
2019-05-25T15:28:47.187Z,1.23
2019-05-25T15:30:53.931Z,2.10
2019-05-25T15:33:00.298Z,1.63
2019-05-25T15:35:11.111Z,2.50
2019-05-25T15:37:17.440Z,1.83
2019-05-25T15:39:23.842Z,1.37
2019-05-25T15:41:30.883Z,0.97
2019-05-25T15:43:38.355Z,1.57
2019-05-25T15:45:46.066Z,2.40
2019-05-25T15:47:53.157Z,2.10
2019-05-25T15:49:59.447Z,1.20
2019-05-25T15:52:06.764Z,0.90
2019-05-25T15:54:14.569Z,1.10
2019-05-25T15:56:21.962Z,2.23
2019-05-25T15:58:28.341Z,1.17
2019-05-25T16:00:52.032Z,1.40
2019-05-25T16:02:59.378Z,1.60
2019-05-25T16:05:07.037Z,1.37
2019-05-25T16:07:15.960Z,2.27
2019-05-25T16:09:22.345Z,1.50
2019-05-25T16:11:31.968Z,1.57
2019-05-25T16:13:38.454Z,1.30
2019-05-25T16:15:44.928Z,1.77
2019-05-25T16:17:51.497Z,1.20
2019-05-25T16:19:58.055Z,2.33
2019-05-25T16:22:04.333Z,1.40
2019-05-25T16:24:10.685Z,1.53
2019-05-25T16:26:16.965Z,1.20
2019-05-25T16:28:24.299Z,1.27
2019-05-25T16:30:31.489Z,1.97
2019-05-25T16:33:10.149Z,1.93
2019-05-25T16:34:47.711Z,1.40
2019-05-25T16:36:54.364Z,1.47
2019-05-25T16:39:03.217Z,1.23
2019-05-25T16:41:09.473Z,1.60
2019-05-25T16:43:15.825Z,1.50
2019-05-25T16:45:22.608Z,1.40
2019-05-25T16:47:28.854Z,1.33
2019-05-25T16:49:37.196Z,1.13
2019-05-25T16:51:43.544Z,1.30
2019-05-25T16:53:49.923Z,1.50
2019-05-25T16:55:57.999Z,1.33
2019-05-25T16:58:04.877Z,2.40
2019-05-25T17:00:14.604Z,1.70
2019-05-25T17:02:23.335Z,3.10
2019-05-25T17:04:29.709Z,2.23
2019-05-25T17:06:38.513Z,1.80
2019-05-25T17:08:44.777Z,2.97
2019-05-25T17:10:52.783Z,5.43
2019-05-25T17:12:59.345Z,2.83
2019-05-25T17:15:07.755Z,5.93
2019-05-25T17:17:14.329Z,9.63
2019-05-25T17:19:20.694Z,1.47
2019-05-25T17:21:27.456Z,1.77
2019-05-25T17:23:33.720Z,1.90
2019-05-25T17:25:40.235Z,1.70
2019-05-25T17:27:47.774Z,1.73
2019-05-25T17:29:55.274Z,1.80
2019-05-25T17:32:01.515Z,2.47
2019-05-25T17:34:07.992Z,2.13
2019-05-25T17:36:14.263Z,1.60
2019-05-25T17:38:21.634Z,1.57
2019-05-25T17:40:27.897Z,1.93
2019-05-25T17:42:35.179Z,1.27
2019-05-25T17:44:41.432Z,1.87
2019-05-25T17:46:47.801Z,1.60
2019-05-25T17:48:54.484Z,1.57
2019-05-25T17:51:01.051Z,1.97
2019-05-25T17:53:07.406Z,1.67
2019-05-25T17:55:14.530Z,2.37
2019-05-25T17:57:21.052Z,1.90
2019-05-25T17:59:27.915Z,1.57
2019-05-25T18:01:34.191Z,1.67
2019-05-25T18:03:40.657Z,1.23
2019-05-25T18:05:48.124Z,1.70
2019-05-25T18:07:54.400Z,1.93
2019-05-25T18:10:00.888Z,1.90
2019-05-25T18:12:07.228Z,2.07
2019-05-25T18:14:13.597Z,1.80
2019-05-25T18:16:21.467Z,1.70
2019-05-25T18:18:27.867Z,2.17
2019-05-25T18:20:34.620Z,1.90
2019-05-25T18:22:41.108Z,2.23
2019-05-25T18:24:47.665Z,2.10
2019-05-25T18:26:54.010Z,1.47
2019-05-25T18:29:00.270Z,2.53
2019-05-25T18:31:07.100Z,1.57
2019-05-25T18:33:13.320Z,2.13
2019-05-25T18:35:19.697Z,1.67
2019-05-25T18:37:27.578Z,2.20
2019-05-25T18:39:35.163Z,1.90
2019-05-25T18:41:43.170Z,1.60
2019-05-25T18:43:49.638Z,1.63
2019-05-25T18:45:55.991Z,2.10
2019-05-25T18:48:04.493Z,1.80
2019-05-25T18:50:12.939Z,1.53
2019-05-25T18:52:19.381Z,1.97
2019-05-25T18:54:27.341Z,1.77
2019-05-25T18:56:33.966Z,2.00
2019-05-25T18:58:40.334Z,2.10
2019-05-25T19:00:46.882Z,2.07
2019-05-25T19:02:53.878Z,1.93
2019-05-25T19:05:01.676Z,2.00
2019-05-25T19:07:08.136Z,1.90
2019-05-25T19:09:14.600Z,2.33
2019-05-25T19:11:20.962Z,1.33
2019-05-25T19:13:27.312Z,1.67
2019-05-25T19:15:35.202Z,1.60
2019-05-25T19:17:46.792Z,2.07
2019-05-25T19:19:53.248Z,1.70
2019-05-25T19:22:00.741Z,1.80
2019-05-25T19:24:07.309Z,1.40
2019-05-25T19:26:14.693Z,1.87
2019-05-25T19:28:22.838Z,1.70
2019-05-25T19:30:30.282Z,2.20
2019-05-25T19:32:36.886Z,2.20
2019-05-25T19:34:58.636Z,1.70
2019-05-25T19:36:52.342Z,1.93
2019-05-25T19:38:58.824Z,2.20
2019-05-25T19:41:05.350Z,2.00
2019-05-25T19:43:11.747Z,1.97
2019-05-25T19:45:19.949Z,1.70
2019-05-25T19:47:26.204Z,2.27
2019-05-25T19:49:32.564Z,2.60
2019-05-25T19:51:38.846Z,2.17
2019-05-25T19:53:45.409Z,1.90
2019-05-25T19:55:51.989Z,2.33
2019-05-25T19:57:59.565Z,2.37
2019-05-25T20:00:10.676Z,2.93
2019-05-25T20:02:17.001Z,2.30
2019-05-25T20:04:23.364Z,2.73
2019-05-25T20:06:30.123Z,2.57
2019-05-25T20:08:37.414Z,2.00
2019-05-25T20:10:44.074Z,2.33
2019-05-25T20:12:50.447Z,1.77
2019-05-25T20:14:56.852Z,2.20
2019-05-25T20:17:03.787Z,2.50
2019-05-25T20:19:10.154Z,2.50
2019-05-25T20:21:16.810Z,1.93
2019-05-25T20:23:24.718Z,2.13
2019-05-25T20:25:31.077Z,2.00
2019-05-25T20:27:39.067Z,2.40
2019-05-25T20:29:45.361Z,2.10
2019-05-25T20:31:52.107Z,2.30
2019-05-25T20:33:58.488Z,2.17
2019-05-25T20:36:05.660Z,2.30
2019-05-25T20:38:12.683Z,2.40
2019-05-25T20:40:19.307Z,1.90
2019-05-25T20:42:25.570Z,2.20
2019-05-25T20:44:32.055Z,2.30
2019-05-25T20:46:38.387Z,2.03
2019-05-25T20:48:45.168Z,1.77
2019-05-25T20:50:52.966Z,1.90
2019-05-25T20:53:00.949Z,2.30
2019-05-25T20:55:08.836Z,2.37
2019-05-25T20:57:15.531Z,2.23
2019-05-25T20:59:22.104Z,2.10
2019-05-25T21:01:28.462Z,2.23
2019-05-25T21:03:35.142Z,1.90
2019-05-25T21:05:50.226Z,2.23
2019-05-25T21:07:49.489Z,2.70
2019-05-25T21:09:59.135Z,2.40
2019-05-25T21:12:08.487Z,2.40
2019-05-25T21:14:14.927Z,2.53
2019-05-25T21:16:22.957Z,2.70
2019-05-25T21:18:29.522Z,2.60
2019-05-25T21:20:36.273Z,2.57
2019-05-25T21:22:42.647Z,2.57
2019-05-25T21:24:49.109Z,2.17
2019-05-25T21:26:55.475Z,2.27
2019-05-25T21:29:02.125Z,1.97
2019-05-25T21:31:08.375Z,2.30
2019-05-25T21:33:14.854Z,2.37
2019-05-25T21:35:21.334Z,2.53
2019-05-25T21:37:28.330Z,2.70
2019-05-25T21:39:34.734Z,3.63
2019-05-25T21:41:41.149Z,3.40
2019-05-25T21:43:47.611Z,3.53
2019-05-25T21:45:55.394Z,5.30
2019-05-25T21:48:01.966Z,2.80
2019-05-25T21:50:09.791Z,3.53
2019-05-25T21:52:16.332Z,3.20
2019-05-25T21:54:22.692Z,2.97
2019-05-25T21:56:29.142Z,3.47
2019-05-25T21:58:37.467Z,3.33
2019-05-25T22:00:44.341Z,2.70
2019-05-25T22:02:50.800Z,3.60
2019-05-25T22:04:57.061Z,3.50
2019-05-25T22:07:03.726Z,3.50
2019-05-25T22:09:12.028Z,3.10
2019-05-25T22:11:18.294Z,3.30
2019-05-25T22:13:28.723Z,3.33
2019-05-25T22:15:32.664Z,3.00
2019-05-25T22:17:39.486Z,3.20
2019-05-25T22:19:45.885Z,3.47
2019-05-25T22:21:53.287Z,3.50
2019-05-25T22:23:59.744Z,3.00
2019-05-25T22:26:06.134Z,3.50
2019-05-25T22:28:14.020Z,3.40
2019-05-25T22:30:22.590Z,3.00
2019-05-25T22:32:29.078Z,3.07
2019-05-25T22:34:35.345Z,3.77
2019-05-25T22:36:41.704Z,2.90
2019-05-25T22:38:48.285Z,3.93
2019-05-25T22:40:54.858Z,3.80
2019-05-25T22:43:01.332Z,3.00
2019-05-25T22:45:12.439Z,3.30
2019-05-25T22:47:19.048Z,3.50
2019-05-25T22:49:25.630Z,3.43
2019-05-25T22:51:32.083Z,3.30
2019-05-25T22:53:38.552Z,3.80
2019-05-25T22:55:44.839Z,3.87
2019-05-25T22:57:51.205Z,3.20
2019-05-25T22:59:57.636Z,3.63
2019-05-25T23:02:03.899Z,3.30
2019-05-25T23:04:10.159Z,3.33
2019-05-25T23:06:16.619Z,3.40
2019-05-25T23:08:23.614Z,3.10
2019-05-25T23:10:29.964Z,3.33
2019-05-25T23:12:36.340Z,3.37
2019-05-25T23:14:43.771Z,3.70
2019-05-25T23:16:50.069Z,3.17
2019-05-25T23:18:56.751Z,3.07
2019-05-25T23:21:03.017Z,3.43
2019-05-25T23:23:09.365Z,3.73
2019-05-25T23:25:15.831Z,3.70
2019-05-25T23:27:22.397Z,3.63
2019-05-25T23:29:28.974Z,3.93
2019-05-25T23:31:35.438Z,4.43
2019-05-25T23:33:41.996Z,3.10
2019-05-25T23:35:48.265Z,3.03
2019-05-25T23:37:54.535Z,4.07
2019-05-25T23:40:01.785Z,3.40
2019-05-25T23:42:08.295Z,3.13
2019-05-25T23:44:14.944Z,3.13
2019-05-25T23:46:22.433Z,3.60
2019-05-25T23:48:28.905Z,3.27
2019-05-25T23:50:35.563Z,3.57
2019-05-25T23:52:41.926Z,3.50
2019-05-25T23:54:48.402Z,4.17
2019-05-25T23:56:54.760Z,4.30
2019-05-25T23:59:02.049Z,3.90
